Time;durP1;ratioP1;P1;durP2;ratioP2;P2;SDS_P1;SDS_P2;PMS_P1;PMS_P2;Temp;Humidity;BMP_temperature;BMP_pressure;BME280_temperature;BME280_humidity;BME280_pressure;Samples;Min_cycle;Max_cycle;Signal;HPM_P1;HPM_P2
2023/05/17 00:00:58;;;;;;;3.83;1.63;;;;;;;19.69;42.14;102406.94;5022252;28;20465;-70
2023/05/17 00:03:23;;;;;;;4.47;1.33;;;;;;;19.67;42.16;102406.16;5007012;28;20429;-71
2023/05/17 00:05:48;;;;;;;5.13;1.52;;;;;;;19.68;42.32;102410.50;5010698;28;20037;-69
2023/05/17 00:08:14;;;;;;;4.20;1.48;;;;;;;19.67;42.08;102413.25;5020060;28;20522;-70
2023/05/17 00:10:39;;;;;;;3.80;1.40;;;;;;;19.68;42.03;102412.31;5018075;28;20044;-71
2023/05/17 00:13:04;;;;;;;3.63;1.27;;;;;;;19.64;42.04;102408.16;5017343;28;20088;-71
2023/05/17 00:15:29;;;;;;;5.43;2.08;;;;;;;19.64;42.20;102416.94;5010234;28;20054;-70
2023/05/17 00:17:56;;;;;;;4.85;1.50;;;;;;;19.65;42.03;102417.78;5011068;28;20651;-73
2023/05/17 00:20:21;;;;;;;4.50;1.20;;;;;;;19.63;42.21;102419.66;5007018;28;20540;-72
2023/05/17 00:22:46;;;;;;;3.70;1.25;;;;;;;19.63;42.11;102419.66;5021634;28;20933;-70
2023/05/17 00:25:12;;;;;;;3.38;1.23;;;;;;;19.61;42.08;102416.28;5008794;28;20057;-70
2023/05/17 00:27:37;;;;;;;5.07;1.58;;;;;;;19.61;42.09;102411.81;5018200;28;20045;-71
2023/05/17 00:30:03;;;;;;;4.97;1.50;;;;;;;19.61;42.27;102417.13;5022178;28;20552;-71
2023/05/17 00:32:28;;;;;;;4.57;1.45;;;;;;;19.59;42.08;102411.09;5019504;28;20271;-72
2023/05/17 00:34:54;;;;;;;5.07;1.47;;;;;;;19.59;42.01;102413.72;5003445;28;20037;-72
2023/05/17 00:37:19;;;;;;;5.45;1.70;;;;;;;19.59;41.97;102419.00;5002529;28;20268;-69
2023/05/17 00:39:44;;;;;;;4.07;1.25;;;;;;;19.56;41.95;102419.22;5002073;28;20034;-70
2023/05/17 00:42:10;;;;;;;3.50;1.27;;;;;;;19.54;41.88;102419.31;5002530;28;20038;-70
2023/05/17 00:44:35;;;;;;;7.00;1.70;;;;;;;19.55;42.20;102415.72;5014874;28;20025;-69
2023/05/17 00:47:01;;;;;;;5.65;1.50;;;;;;;19.57;41.99;102411.19;5007105;28;20030;-72
2023/05/17 00:49:27;;;;;;;5.65;1.58;;;;;;;19.54;41.94;102400.78;5002308;28;20029;-72
2023/05/17 00:51:53;;;;;;;4.28;1.50;;;;;;;19.54;41.79;102403.44;5008245;28;20087;-70
2023/05/17 00:54:19;;;;;;;3.55;1.33;;;;;;;19.54;41.91;102406.06;5001791;28;20073;-73
2023/05/17 00:56:44;;;;;;;5.55;1.40;;;;;;;19.53;41.83;102416.75;5008364;28;20091;-72
2023/05/17 00:59:12;;;;;;;3.90;1.30;;;;;;;19.53;41.62;102422.03;5009365;28;20497;-72
2023/05/17 01:01:40;;;;;;;5.13;1.30;;;;;;;19.52;42.07;102415.91;5020852;28;20187;-70
2023/05/17 01:04:06;;;;;;;4.45;1.50;;;;;;;19.53;41.67;102417.59;5020573;28;20065;-69
2023/05/17 01:06:31;;;;;;;3.92;1.25;;;;;;;19.50;41.96;102409.88;5011777;28;20493;-72
2023/05/17 01:08:56;;;;;;;4.53;1.40;;;;;;;19.52;41.79;102412.44;5018027;28;20029;-70
2023/05/17 01:11:28;;;;;;;5.28;1.52;;;;;;;19.51;42.13;102413.34;5020017;28;20793;-70
2023/05/17 01:14:17;;;;;;;6.50;1.33;;;;;;;19.50;42.00;102412.53;5011894;28;20050;-71
2023/05/17 01:17:15;;;;;;;4.45;1.20;;;;;;;19.48;41.99;102419.69;5016782;28;20029;-70
2023/05/17 01:20:19;;;;;;;4.10;1.60;;;;;;;19.48;41.67;102422.31;5021174;28;20052;-73
2023/05/17 01:23:06;;;;;;;4.43;1.40;;;;;;;19.46;41.67;102405.72;4948451;28;20062;-71
2023/05/17 01:25:41;;;;;;;5.07;1.40;;;;;;;19.46;41.87;102405.72;5012091;28;20103;-73
2023/05/17 01:28:08;;;;;;;4.85;1.42;;;;;;;19.45;41.59;102404.00;5021188;28;20377;-69
2023/05/17 01:30:36;;;;;;;4.32;1.45;;;;;;;19.46;41.70;102412.81;5004910;28;20541;-69
2023/05/17 01:33:02;;;;;;;4.88;1.38;;;;;;;19.45;41.68;102416.38;5018245;28;20887;-70
2023/05/17 01:35:28;;;;;;;4.50;1.50;;;;;;;19.41;41.96;102418.38;5017421;28;20034;-72
2023/05/17 01:37:53;;;;;;;5.13;1.50;;;;;;;19.44;41.61;102418.19;5017936;28;20034;-71
2023/05/17 01:40:20;;;;;;;4.30;1.30;;;;;;;19.43;41.71;102410.34;5013984;28;20041;-70
2023/05/17 01:42:50;;;;;;;6.03;1.70;;;;;;;19.42;41.58;102413.94;5006489;28;20029;-69
2023/05/17 01:45:18;;;;;;;4.35;1.30;;;;;;;19.42;41.90;102414.78;5013896;28;20092;-70
2023/05/17 01:47:50;;;;;;;4.10;1.38;;;;;;;19.41;41.77;102407.81;5009079;28;20049;-71
2023/05/17 01:50:21;;;;;;;5.30;1.42;;;;;;;19.42;42.07;102409.47;5002431;28;20034;-70
2023/05/17 01:52:54;;;;;;;4.40;1.48;;;;;;;19.41;41.65;102413.09;5001737;28;20030;-69
2023/05/17 01:55:30;;;;;;;4.55;1.50;;;;;;;19.38;41.70;102406.19;5001397;28;20048;-70
2023/05/17 01:57:56;;;;;;;4.50;1.40;;;;;;;19.39;41.59;102412.31;5001591;28;20107;-70
2023/05/17 02:00:24;;;;;;;5.32;1.60;;;;;;;19.37;41.49;102403.63;5001489;28;20049;-70
2023/05/17 02:02:49;;;;;;;3.78;1.35;;;;;;;19.37;41.58;102406.28;5013157;28;20906;-73
2023/05/17 02:05:15;;;;;;;5.22;1.58;;;;;;;19.38;41.70;102408.00;5020618;28;20454;-71
2023/05/17 02:07:40;;;;;;;5.25;1.30;;;;;;;19.38;41.50;102408.81;5020869;28;20469;-71
2023/05/17 02:10:06;;;;;;;5.22;1.50;;;;;;;19.38;41.50;102415.91;5021144;28;20543;-70
2023/05/17 02:12:31;;;;;;;4.85;1.50;;;;;;;19.36;41.44;102413.38;5018933;28;20536;-70
2023/05/17 02:14:57;;;;;;;4.88;1.35;;;;;;;19.31;41.50;102409.31;5004727;28;20084;-71
2023/05/17 02:17:23;;;;;;;3.65;1.30;;;;;;;19.35;41.46;102411.66;5009180;28;20045;-69
2023/05/17 02:19:48;;;;;;;4.43;1.48;;;;;;;19.35;41.41;102414.31;5020292;28;20057;-72
2023/05/17 02:22:13;;;;;;;7.72;1.80;;;;;;;19.32;41.73;102422.41;5012974;28;20073;-70
2023/05/17 02:24:39;;;;;;;6.07;1.65;;;;;;;19.32;41.59;102414.50;5009715;28;20033;-69
2023/05/17 02:27:04;;;;;;;6.65;1.70;;;;;;;19.34;41.38;102420.56;5006709;28;20070;-69
2023/05/17 02:29:30;;;;;;;6.43;1.70;;;;;;;19.29;41.49;102406.75;5005152;28;20889;-71
2023/05/17 02:31:56;;;;;;;3.60;1.23;;;;;;;19.31;41.49;102412.81;5011392;28;20033;-70
2023/05/17 02:34:21;;;;;;;4.10;1.35;;;;;;;19.32;41.61;102411.00;5003485;28;20030;-70
2023/05/17 02:36:47;;;;;;;3.03;1.10;;;;;;;19.31;41.35;102410.16;5003679;28;20133;-72
2023/05/17 02:39:12;;;;;;;5.75;1.65;;;;;;;19.31;41.41;102420.75;5019547;28;20052;-70
2023/05/17 02:41:38;;;;;;;3.83;1.33;;;;;;;19.31;41.63;102415.47;5009715;28;20382;-71
2023/05/17 02:44:04;;;;;;;4.70;1.58;;;;;;;19.30;41.63;102423.47;5012588;28;20124;-70
2023/05/17 02:46:29;;;;;;;5.57;1.40;;;;;;;19.28;41.52;102418.28;5023900;28;20832;-70
2023/05/17 02:48:54;;;;;;;4.97;1.60;;;;;;;19.29;41.60;102432.34;5014641;28;20026;-70
2023/05/17 02:51:19;;;;;;;4.80;1.47;;;;;;;19.30;41.57;102428.78;5023515;28;20373;-69
2023/05/17 02:53:45;;;;;;;3.50;1.45;;;;;;;19.29;41.61;102432.34;5023814;28;20282;-72
2023/05/17 02:56:10;;;;;;;3.60;1.27;;;;;;;19.24;41.37;102424.69;5010430;28;20474;-68
2023/05/17 02:58:36;;;;;;;6.22;1.77;;;;;;;19.28;41.67;102442.06;5022206;28;20671;-71
2023/05/17 03:01:01;;;;;;;5.25;1.48;;;;;;;19.27;41.51;102435.06;5009381;28;20040;-69
2023/05/17 03:03:26;;;;;;;3.95;1.20;;;;;;;19.26;41.49;102440.47;5009670;28;20040;-69
2023/05/17 03:05:52;;;;;;;4.93;1.35;;;;;;;19.26;41.37;102432.53;5019698;28;20037;-71
2023/05/17 03:08:17;;;;;;;4.35;1.52;;;;;;;19.26;41.59;102440.47;5011629;28;20489;-69
2023/05/17 03:10:42;;;;;;;5.87;1.50;;;;;;;19.25;41.68;102446.69;5017624;28;20466;-70
2023/05/17 03:13:08;;;;;;;5.57;1.70;;;;;;;19.26;41.64;102449.22;5011307;28;20275;-73
2023/05/17 03:15:35;;;;;;;4.13;1.30;;;;;;;19.23;41.76;102440.66;5009570;28;20136;-70
2023/05/17 03:18:00;;;;;;;5.43;1.52;;;;;;;19.24;41.94;102445.00;5023618;28;20044;-70
2023/05/17 03:20:25;;;;;;;6.03;1.70;;;;;;;19.25;41.87;102450.19;5009142;28;20393;-70
2023/05/17 03:22:51;;;;;;;4.18;1.50;;;;;;;19.23;41.84;102449.41;5021520;28;20048;-70
2023/05/17 03:25:17;;;;;;;5.10;1.48;;;;;;;19.24;41.74;102445.84;5017630;28;20034;-71
2023/05/17 03:27:42;;;;;;;5.18;1.70;;;;;;;19.23;41.91;102452.06;5015976;28;20037;-71
2023/05/17 03:30:07;;;;;;;3.60;1.38;;;;;;;19.24;41.65;102456.41;5016074;28;20040;-70
2023/05/17 03:32:33;;;;;;;5.72;1.73;;;;;;;19.21;41.92;102452.16;5003586;28;20030;-73
2023/05/17 03:34:58;;;;;;;4.70;1.50;;;;;;;19.24;41.89;102466.16;5002127;28;20034;-71
2023/05/17 03:37:24;;;;;;;4.82;1.58;;;;;;;19.19;41.99;102456.69;5003434;28;20030;-70
2023/05/17 03:39:49;;;;;;;5.30;1.60;;;;;;;19.20;41.92;102465.47;5005176;28;20407;-71
2023/05/17 03:42:15;;;;;;;5.00;1.88;;;;;;;19.21;42.07;102459.25;5023166;28;20120;-72
2023/05/17 03:44:40;;;;;;;5.30;1.50;;;;;;;19.19;41.97;102459.31;5019918;28;20052;-70
2023/05/17 03:47:06;;;;;;;5.50;1.73;;;;;;;19.21;42.19;102465.38;5022058;28;20108;-70
2023/05/17 03:49:31;;;;;;;6.00;1.50;;;;;;;19.19;41.90;102459.31;5018404;28;20099;-71
2023/05/17 03:51:56;;;;;;;5.55;1.70;;;;;;;19.19;42.01;102458.50;5003161;28;20033;-70
2023/05/17 03:54:22;;;;;;;4.35;1.48;;;;;;;19.21;42.14;102467.16;5005549;28;20358;-70
2023/05/17 03:56:48;;;;;;;4.82;1.70;;;;;;;19.18;42.32;102462.94;5013361;28;20030;-71
2023/05/17 03:59:14;;;;;;;5.25;2.08;;;;;;;19.20;42.00;102471.63;5002856;28;20030;-70
2023/05/17 04:01:41;;;;;;;6.35;1.67;;;;;;;19.17;42.09;102466.50;5002952;28;20041;-69
2023/05/17 04:04:06;;;;;;;6.57;1.88;;;;;;;19.18;42.14;102470.88;5011309;28;20091;-70
2023/05/17 04:06:32;;;;;;;5.20;1.70;;;;;;;19.19;42.16;102469.91;5009937;28;20768;-70
2023/05/17 04:08:58;;;;;;;4.80;1.50;;;;;;;19.17;42.57;102471.78;5013358;28;20029;-69
2023/05/17 04:11:26;;;;;;;4.38;1.52;;;;;;;19.18;42.52;102470.88;5012433;28;20038;-72
2023/05/17 04:13:53;;;;;;;3.75;1.50;;;;;;;19.15;42.25;102473.69;5016556;28;20452;-70
2023/05/17 04:16:19;;;;;;;5.80;1.90;;;;;;;19.17;42.49;102476.25;5003447;28;20032;-72
2023/05/17 04:18:44;;;;;;;4.75;1.73;;;;;;;19.17;42.35;102477.09;5002984;28;20042;-71
2023/05/17 04:21:10;;;;;;;5.30;1.95;;;;;;;19.17;42.18;102484.16;5017365;28;20037;-69
2023/05/17 04:23:36;;;;;;;4.40;1.70;;;;;;;19.19;42.14;102484.91;5018746;28;20037;-69
2023/05/17 04:26:02;;;;;;;4.57;1.77;;;;;;;19.16;42.46;102478.00;5003568;28;20072;-71
2023/05/17 04:28:27;;;;;;;5.28;1.55;;;;;;;19.16;42.40;102482.47;5012655;28;20433;-71
2023/05/17 04:30:54;;;;;;;4.93;1.93;;;;;;;19.15;42.41;102480.75;5007224;28;20037;-72
2023/05/17 04:33:20;;;;;;;6.15;1.90;;;;;;;19.15;42.24;102492.19;5007304;28;20304;-70
2023/05/17 04:35:45;;;;;;;5.00;1.73;;;;;;;19.16;42.44;102491.22;5010819;28;20025;-69
2023/05/17 04:38:11;;;;;;;6.10;1.90;;;;;;;19.16;42.45;102495.66;5019983;28;20026;-69
2023/05/17 04:40:36;;;;;;;5.00;1.85;;;;;;;19.14;42.23;102498.41;5017841;28;20129;-69
2023/05/17 04:43:01;;;;;;;5.18;1.88;;;;;;;19.16;42.25;102509.72;5006300;28;20030;-71
2023/05/17 04:45:27;;;;;;;5.22;1.88;;;;;;;19.14;42.37;102511.63;5019049;28;20458;-70
2023/05/17 04:47:52;;;;;;;5.53;1.80;;;;;;;19.17;41.96;102515.88;5021946;28;20041;-69
2023/05/17 04:50:18;;;;;;;5.68;1.90;;;;;;;19.13;42.47;102512.53;5022141;28;20278;-71
2023/05/17 04:52:44;;;;;;;5.60;2.00;;;;;;;19.16;42.52;102519.47;5018498;28;20026;-68
2023/05/17 04:55:10;;;;;;;5.85;2.30;;;;;;;19.15;42.34;102515.97;5013032;28;20034;-72
2023/05/17 04:57:35;;;;;;;6.70;1.75;;;;;;;19.13;42.58;102522.28;5013216;28;20111;-69
2023/05/17 05:00:08;;;;;;;4.78;1.98;;;;;;;19.15;42.33;102528.31;5014990;28;20030;-72
2023/05/17 05:02:34;;;;;;;4.95;1.90;;;;;;;19.14;42.27;102526.63;5015423;28;20083;-70
2023/05/17 05:04:59;;;;;;;6.78;2.55;;;;;;;19.14;42.41;102530.13;5010262;28;20033;-72
2023/05/17 05:07:24;;;;;;;6.90;2.10;;;;;;;19.12;42.71;102529.38;5007467;28;20033;-74
2023/05/17 05:09:50;;;;;;;6.50;2.03;;;;;;;19.15;42.59;102534.47;5017439;28;20064;-70
2023/05/17 05:12:15;;;;;;;5.90;2.42;;;;;;;19.13;42.56;102538.13;5010474;28;20459;-70
2023/05/17 05:14:41;;;;;;;4.68;1.80;;;;;;;19.14;42.64;102543.34;5009707;28;20465;-70
2023/05/17 05:17:06;;;;;;;4.95;2.05;;;;;;;19.12;42.74;102542.59;5015533;28;20060;-70
2023/05/17 05:19:31;;;;;;;6.40;1.90;;;;;;;19.13;42.54;102541.63;5009664;28;20033;-70
2023/05/17 05:21:56;;;;;;;7.27;2.40;;;;;;;19.14;42.74;102553.91;5008306;28;20041;-69
2023/05/17 05:24:22;;;;;;;6.10;1.93;;;;;;;19.14;42.51;102548.63;5014784;28;20308;-72
2023/05/17 05:26:47;;;;;;;6.10;2.10;;;;;;;19.13;42.76;102552.19;5010043;28;20274;-70
2023/05/17 05:29:12;;;;;;;4.90;2.07;;;;;;;19.11;42.59;102551.44;5009637;28;20275;-70
2023/05/17 05:31:37;;;;;;;4.85;2.13;;;;;;;19.11;42.95;102554.06;5012442;28;20834;-69
2023/05/17 05:34:03;;;;;;;6.65;2.38;;;;;;;19.08;42.79;102562.19;5007719;28;20077;-73
2023/05/17 05:36:28;;;;;;;7.68;2.38;;;;;;;19.08;43.08;102562.19;5012963;28;20113;-71
2023/05/17 05:38:53;;;;;;;6.72;1.90;;;;;;;19.05;43.31;102567.66;5009732;28;20092;-72
2023/05/17 05:41:19;;;;;;;4.93;2.03;;;;;;;19.03;43.46;102565.09;5010847;28;20033;-69
2023/05/17 05:43:44;;;;;;;7.07;2.03;;;;;;;19.00;43.48;102569.72;5008809;28;20109;-70
2023/05/17 05:46:09;;;;;;;5.68;1.85;;;;;;;18.97;43.68;102561.97;5008795;28;20141;-72
2023/05/17 05:48:38;;;;;;;5.78;1.83;;;;;;;18.98;43.52;102571.59;5013786;28;20390;-69
2023/05/17 05:51:03;;;;;;;6.43;1.98;;;;;;;18.98;43.96;102579.53;5011410;28;20033;-69
2023/05/17 05:53:29;;;;;;;4.43;1.48;;;;;;;18.97;44.15;102578.66;5007770;28;20107;-71
2023/05/17 05:55:54;;;;;;;4.63;1.70;;;;;;;19.01;43.94;102582.84;5011923;28;20029;-71
2023/05/17 05:58:19;;;;;;;4.68;1.63;;;;;;;19.03;43.96;102582.75;5012977;28;20026;-71
2023/05/17 06:00:45;;;;;;;5.32;1.65;;;;;;;19.07;43.87;102588.69;5009157;28;20471;-69
2023/05/17 06:03:10;;;;;;;5.28;1.60;;;;;;;19.08;43.85;102591.25;5015552;28;20095;-70
2023/05/17 06:05:35;;;;;;;6.18;2.22;;;;;;;19.06;44.10;102581.69;5010451;28;20034;-69
2023/05/17 06:08:01;;;;;;;5.40;1.95;;;;;;;19.11;43.76;102596.38;5012933;28;20339;-69
2023/05/17 06:10:26;;;;;;;4.68;1.92;;;;;;;19.15;44.02;102604.97;5010498;28;20041;-70
2023/05/17 06:12:51;;;;;;;6.65;1.90;;;;;;;19.13;43.88;102602.41;5008627;28;20040;-71
2023/05/17 06:15:17;;;;;;;5.90;2.00;;;;;;;19.17;44.28;102606.59;5012066;28;20062;-71
2023/05/17 06:17:42;;;;;;;6.82;2.00;;;;;;;19.18;44.44;102603.00;5016040;28;20818;-72
2023/05/17 06:20:08;;;;;;;7.35;2.15;;;;;;;19.21;44.56;102616.03;5017795;28;20025;-72
2023/05/17 06:22:33;;;;;;;5.47;1.98;;;;;;;19.21;44.84;102616.03;5010965;28;20030;-70
2023/05/17 06:24:59;;;;;;;6.47;2.08;;;;;;;19.23;44.60;102618.56;5019647;28;20068;-70
2023/05/17 06:27:25;;;;;;;8.40;1.88;;;;;;;19.23;44.69;102623.03;5020453;28;20029;-71
2023/05/17 06:29:50;;;;;;;4.85;1.83;;;;;;;19.26;44.63;102628.13;5016380;28;20136;-69
2023/05/17 06:32:15;;;;;;;6.07;1.85;;;;;;;19.25;44.46;102626.41;5012318;28;20152;-73
2023/05/17 06:34:41;;;;;;;7.47;2.47;;;;;;;19.29;44.60;102631.44;5015922;28;20021;-74
2023/05/17 06:37:06;;;;;;;5.88;1.60;;;;;;;19.27;44.62;102624.56;5018967;28;20033;-72
2023/05/17 06:39:31;;;;;;;7.93;2.10;;;;;;;19.28;44.62;102618.31;5010890;28;20044;-71
2023/05/17 06:41:57;;;;;;;8.52;1.90;;;;;;;19.28;44.69;102621.81;5011554;28;20117;-73
2023/05/17 06:44:22;;;;;;;5.55;1.60;;;;;;;19.28;44.52;102621.81;5019647;28;20168;-69
2023/05/17 06:46:47;;;;;;;5.68;1.70;;;;;;;19.27;44.71;102622.75;5006219;28;20113;-73
2023/05/17 06:49:13;;;;;;;7.65;1.90;;;;;;;19.31;44.40;102620.78;5015710;28;20594;-73
2023/05/17 06:51:38;;;;;;;8.38;1.80;;;;;;;19.32;44.41;102627.78;5020512;28;20432;-69
2023/05/17 06:54:03;;;;;;;9.52;1.77;;;;;;;19.28;44.70;102624.47;5006172;28;20030;-68
2023/05/17 06:56:28;;;;;;;7.60;2.35;;;;;;;19.31;44.64;102631.34;5006127;28;20033;-71
2023/05/17 06:58:54;;;;;;;5.88;2.00;;;;;;;19.32;44.63;102633.06;5012632;28;20033;-72
2023/05/17 07:01:19;;;;;;;7.47;1.92;;;;;;;19.32;45.02;102630.41;5008786;28;20486;-70
2023/05/17 07:03:44;;;;;;;8.20;2.00;;;;;;;19.34;45.03;102634.69;5021951;28;20099;-70
2023/05/17 07:06:10;;;;;;;7.63;1.80;;;;;;;19.31;45.01;102626.06;5014119;28;20274;-70
2023/05/17 07:08:35;;;;;;;7.00;1.70;;;;;;;19.36;44.91;102635.44;5013710;28;20049;-71
2023/05/17 07:11:01;;;;;;;7.40;2.00;;;;;;;19.35;44.89;102638.19;5010213;28;20033;-70
2023/05/17 07:13:27;;;;;;;6.13;2.05;;;;;;;19.36;44.74;102647.81;5015664;28;20379;-69
2023/05/17 07:15:52;;;;;;;8.35;1.85;;;;;;;19.34;44.86;102634.69;5016796;28;20052;-70
2023/05/17 07:18:17;;;;;;;5.55;1.90;;;;;;;19.36;44.64;102642.53;5017487;28;20037;-70
2023/05/17 07:20:42;;;;;;;6.80;2.50;;;;;;;19.36;44.90;102646.00;5021100;28;20474;-70
2023/05/17 07:23:08;;;;;;;7.43;1.88;;;;;;;19.39;44.64;102651.13;5006912;28;20358;-72
2023/05/17 07:25:37;;;;;;;10.32;2.20;;;;;;;19.47;44.41;102657.75;5017504;28;21314;-70
2023/05/17 07:28:03;;;;;;;8.13;2.13;;;;;;;19.52;43.87;102653.91;5011044;28;20026;-71
2023/05/17 07:30:28;;;;;;;6.38;1.50;;;;;;;19.58;43.78;102652.66;5013070;28;20033;-70
2023/05/17 07:32:54;;;;;;;5.88;1.70;;;;;;;19.56;43.70;102651.91;5017057;28;20044;-70
2023/05/17 07:35:19;;;;;;;9.50;2.75;;;;;;;19.56;43.67;102650.13;5009189;28;20053;-74
2023/05/17 07:37:46;;;;;;;8.13;1.60;;;;;;;19.55;43.80;102651.09;5012867;28;20033;-72
2023/05/17 07:40:11;;;;;;;5.25;1.70;;;;;;;19.57;43.83;102666.84;5010850;28;20053;-71
2023/05/17 07:42:36;;;;;;;6.25;2.08;;;;;;;19.56;43.80;102665.16;5011214;28;20405;-71
2023/05/17 07:45:02;;;;;;;7.45;2.20;;;;;;;19.53;43.93;102666.16;5009168;28;20041;-71
2023/05/17 07:47:27;;;;;;;7.05;1.73;;;;;;;19.55;43.67;102668.72;5016248;28;20036;-72
2023/05/17 07:49:52;;;;;;;7.68;1.88;;;;;;;19.56;43.54;102665.97;5024945;28;20041;-70
2023/05/17 07:52:18;;;;;;;5.90;2.10;;;;;;;19.60;43.50;102657.88;5012556;28;20026;-70
2023/05/17 07:54:43;;;;;;;6.40;1.75;;;;;;;19.62;43.76;102670.06;5021295;28;20734;-72
2023/05/17 07:57:08;;;;;;;6.18;1.67;;;;;;;19.65;43.68;102666.41;5010925;28;20032;-70
2023/05/17 07:59:34;;;;;;;5.97;1.65;;;;;;;19.63;43.77;102677.09;5020995;28;20708;-70
2023/05/17 08:01:59;;;;;;;5.63;1.52;;;;;;;19.63;43.81;102663.84;5018656;28;20048;-71
2023/05/17 08:04:25;;;;;;;5.20;1.48;;;;;;;19.66;43.63;102668.97;5014393;28;20045;-72
2023/05/17 08:06:50;;;;;;;6.07;1.60;;;;;;;19.67;43.59;102662.72;5015270;28;20038;-71
2023/05/17 08:09:15;;;;;;;8.45;1.70;;;;;;;19.68;43.46;102664.44;5009212;28;20139;-69
2023/05/17 08:11:47;;;;;;;5.05;1.55;;;;;;;19.73;43.47;102672.94;5013878;28;20450;-72
2023/05/17 08:14:14;;;;;;;6.00;1.70;;;;;;;19.78;43.51;102675.34;5023442;28;20053;-73
2023/05/17 08:16:41;;;;;;;8.60;1.60;;;;;;;19.81;43.23;102675.16;5008489;28;20045;-69
2023/05/17 08:19:06;;;;;;;4.38;1.38;;;;;;;19.82;43.36;102666.28;5007567;28;20044;-74
2023/05/17 08:21:31;;;;;;;5.85;1.70;;;;;;;19.73;43.38;102659.72;5018205;28;20041;-71
2023/05/17 08:23:57;;;;;;;6.78;1.60;;;;;;;19.78;42.46;102669.22;5021417;28;20069;-71
2023/05/17 08:26:22;;;;;;;4.93;1.50;;;;;;;19.85;42.63;102681.97;5015168;28;20044;-68
2023/05/17 08:28:47;;;;;;;6.05;1.63;;;;;;;19.84;42.69;102671.50;5010383;28;20271;-71
2023/05/17 08:31:12;;;;;;;7.05;1.77;;;;;;;19.88;42.93;102670.34;5019807;28;20048;-70
2023/05/17 08:33:38;;;;;;;8.00;1.33;;;;;;;19.85;42.55;102674.03;5007585;28;20037;-72
2023/05/17 08:36:06;;;;;;;7.20;1.80;;;;;;;19.83;42.64;102683.84;5013782;28;20266;-70
2023/05/17 08:38:33;;;;;;;4.88;1.42;;;;;;;19.80;43.02;102678.75;5009819;28;20042;-72
2023/05/17 08:40:58;;;;;;;6.90;1.30;;;;;;;19.75;42.72;102681.63;5021140;28;20072;-66
2023/05/17 08:43:24;;;;;;;4.82;1.35;;;;;;;19.82;42.61;102682.16;5007590;28;20030;-66
2023/05/17 08:45:51;;;;;;;6.30;1.60;;;;;;;19.79;42.28;102671.75;5001325;28;20033;-68
2023/05/17 08:48:18;;;;;;;5.05;1.50;;;;;;;19.78;41.91;102670.06;5011526;28;20477;-72
2023/05/17 08:50:45;;;;;;;7.22;1.60;;;;;;;19.79;42.36;102678.81;5015307;28;20041;-72
2023/05/17 08:53:12;;;;;;;7.53;1.95;;;;;;;19.77;42.02;102676.28;5014371;28;20397;-69
2023/05/17 08:55:39;;;;;;;6.45;1.48;;;;;;;19.73;42.20;102683.53;5011362;28;20385;-74
2023/05/17 08:58:06;;;;;;;3.70;1.23;;;;;;;19.70;42.41;102682.84;5013483;28;20034;-73
2023/05/17 09:00:32;;;;;;;7.38;1.60;;;;;;;19.71;42.15;102684.53;5011087;28;20124;-73
2023/05/17 09:02:59;;;;;;;5.28;1.40;;;;;;;19.74;41.76;102682.59;5011248;28;20084;-72
2023/05/17 09:05:25;;;;;;;7.47;1.60;;;;;;;19.74;41.86;102677.28;5010467;28;20075;-71
2023/05/17 09:07:51;;;;;;;6.57;1.13;;;;;;;19.77;41.83;102694.78;5016238;28;20033;-69
2023/05/17 09:10:17;;;;;;;6.07;1.38;;;;;;;19.77;40.90;102686.00;4999759;28;20377;-74
2023/05/17 09:12:43;;;;;;;4.80;1.50;;;;;;;19.84;41.48;102677.63;5010111;28;20048;-73
2023/05/17 09:15:26;;;;;;;6.00;1.45;;;;;;;19.94;41.52;102678.75;5006961;28;20525;-71
2023/05/17 09:17:53;;;;;;;6.22;1.55;;;;;;;19.99;41.34;102675.00;5018714;28;20029;-71
2023/05/17 09:20:35;;;;;;;6.00;1.70;;;;;;;20.02;41.11;102680.09;5005390;28;20030;-74
2023/05/17 09:23:09;;;;;;;7.03;1.67;;;;;;;20.03;41.25;102679.19;5010314;28;20784;-70
2023/05/17 09:25:36;;;;;;;6.65;1.38;;;;;;;20.03;41.30;102684.47;5021189;28;20602;-70
2023/05/17 09:28:03;;;;;;;6.10;1.73;;;;;;;20.03;41.05;102682.66;5021171;28;20034;-72
2023/05/17 09:30:30;;;;;;;8.43;1.50;;;;;;;20.01;41.13;102678.41;5012513;28;20029;-66
2023/05/17 09:32:59;;;;;;;5.00;1.17;;;;;;;20.00;41.02;102685.50;5005320;28;20160;-71
2023/05/17 09:35:31;;;;;;;5.90;1.65;;;;;;;20.00;41.16;102677.56;5019626;28;20037;-70
2023/05/17 09:38:13;;;;;;;4.80;1.20;;;;;;;19.94;41.35;102670.81;5011318;28;20049;-67
2023/05/17 09:40:43;;;;;;;5.85;1.55;;;;;;;19.90;41.72;102686.97;5000088;28;20041;-71
2023/05/17 09:43:10;;;;;;;5.50;1.92;;;;;;;19.93;41.25;102674.44;5004650;28;20049;-70
2023/05/17 09:45:36;;;;;;;4.78;1.20;;;;;;;19.93;41.34;102671.78;5012138;28;20624;-71
2023/05/17 09:48:12;;;;;;;5.93;1.52;;;;;;;19.93;41.57;102676.22;5001624;28;20562;-70
2023/05/17 09:50:42;;;;;;;6.55;1.40;;;;;;;19.93;41.47;102678.84;5000347;28;20080;-71
2023/05/17 09:53:24;;;;;;;8.52;1.75;;;;;;;19.92;41.70;102671.88;5003220;28;20441;-71
2023/05/17 09:55:55;;;;;;;7.68;2.13;;;;;;;19.89;41.75;102677.34;5012684;28;20036;-69
2023/05/17 09:58:21;;;;;;;5.20;1.42;;;;;;;19.87;41.81;102679.25;5002947;28;20437;-70
2023/05/17 10:00:54;;;;;;;5.32;1.23;;;;;;;19.88;41.52;102687.06;5001107;28;20030;-71
2023/05/17 10:03:20;;;;;;;5.15;1.40;;;;;;;19.92;41.47;102682.47;5001056;28;20128;-71
2023/05/17 10:05:49;;;;;;;5.75;1.27;;;;;;;19.88;41.77;102688.88;5004823;28;20108;-71
2023/05/17 10:08:20;;;;;;;5.53;1.20;;;;;;;19.87;41.66;102673.97;5003129;28;20528;-69
2023/05/17 10:10:46;;;;;;;6.50;1.50;;;;;;;19.88;41.52;102683.56;5007841;28;20073;-70
2023/05/17 10:13:14;;;;;;;4.45;1.50;;;;;;;19.87;41.39;102688.03;5002137;28;20037;-70
2023/05/17 10:15:41;;;;;;;6.00;1.10;;;;;;;19.86;41.34;102674.88;5019594;28;20081;-70
2023/05/17 10:18:08;;;;;;;5.70;1.27;;;;;;;19.82;41.53;102676.00;5012901;28;20463;-69
2023/05/17 10:20:34;;;;;;;6.22;1.48;;;;;;;19.81;41.91;102680.44;5012705;28;20034;-70
2023/05/17 10:23:02;;;;;;;4.45;1.40;;;;;;;19.81;41.88;102677.81;5005972;28;20448;-69
2023/05/17 10:25:28;;;;;;;6.38;1.35;;;;;;;19.83;41.63;102681.19;5001024;28;20037;-70
2023/05/17 10:27:54;;;;;;;6.45;1.98;;;;;;;19.79;41.52;102665.59;5001038;28;20148;-70
2023/05/17 10:30:20;;;;;;;5.70;1.33;;;;;;;19.79;41.76;102676.19;5009894;28;20083;-68
2023/05/17 10:32:46;;;;;;;6.03;1.70;;;;;;;19.72;42.19;102676.50;5007890;28;20033;-76
2023/05/17 10:35:14;;;;;;;4.78;1.20;;;;;;;19.64;42.51;102681.41;5018114;28;20558;-69
2023/05/17 10:37:40;;;;;;;7.22;1.02;;;;;;;19.58;42.78;102680.00;5006995;28;20045;-70
2023/05/17 10:40:11;;;;;;;6.07;1.30;;;;;;;19.65;42.75;102685.75;5017716;28;21106;-70
2023/05/17 10:42:40;;;;;;;5.10;1.25;;;;;;;19.64;42.78;102683.22;5020130;28;20314;-71
2023/05/17 10:45:06;;;;;;;6.72;1.50;;;;;;;19.63;42.91;102677.09;5020389;28;20029;-73
2023/05/17 10:47:32;;;;;;;4.53;1.15;;;;;;;19.66;42.71;102673.38;5020192;28;20045;-69
2023/05/17 10:49:57;;;;;;;6.13;1.33;;;;;;;19.65;42.88;102675.19;5002144;28;20200;-71
2023/05/17 10:52:30;;;;;;;8.20;1.75;;;;;;;19.68;42.44;102671.53;5001400;28;20049;-70
2023/05/17 10:54:58;;;;;;;7.70;1.55;;;;;;;19.73;42.36;102667.66;5005613;28;20095;-70
2023/05/17 10:57:35;;;;;;;5.57;1.27;;;;;;;19.75;42.08;102665.75;5003475;28;20044;-68
2023/05/17 11:00:05;;;;;;;5.28;1.45;;;;;;;19.78;41.75;102663.91;5004178;28;20462;-72
2023/05/17 11:02:31;;;;;;;8.43;1.40;;;;;;;19.78;41.28;102662.13;5033815;28;20076;-75
2023/05/17 11:04:57;;;;;;;5.95;1.35;;;;;;;19.79;41.13;102658.53;5012239;28;20034;-72
2023/05/17 11:07:26;;;;;;;7.15;1.70;;;;;;;19.81;41.37;102654.00;5011900;28;20029;-73
2023/05/17 11:09:53;;;;;;;5.18;1.10;;;;;;;19.81;41.48;102651.34;5013830;28;20034;-73
2023/05/17 11:12:44;;;;;;;5.35;1.30;;;;;;;19.83;41.25;102649.47;5010049;28;20041;-74
2023/05/17 11:15:16;;;;;;;5.20;1.20;;;;;;;19.82;40.99;102650.41;5010820;28;20460;-76
2023/05/17 11:17:41;;;;;;;4.90;1.17;;;;;;;19.85;40.66;102652.88;5010572;28;20871;-75
2023/05/17 11:20:14;;;;;;;6.30;1.70;;;;;;;19.86;40.77;102651.91;5008146;28;20034;-76
2023/05/17 11:22:49;;;;;;;9.77;1.42;;;;;;;19.86;40.94;102664.31;5015017;28;20358;-75